Time;durP1;ratioP1;P1;durP2;ratioP2;P2;SDS_P1;SDS_P2;PMS_P1;PMS_P2;Temp;Humidity;BMP_temperature;BMP_pressure;BME280_temperature;BME280_humidity;BME280_pressure;Samples;Min_cycle;Max_cycle;Signal;HPM_P1;HPM_P2
2023/01/10 00:02:02;;;;;;;10.55;2.47;;;4.90;99.90;;;;;;4967329;28;20097;-58
2023/01/10 00:04:28;;;;;;;9.68;2.10;;;5.00;99.90;;;;;;4966115;28;20101;-59
2023/01/10 00:06:54;;;;;;;12.15;2.20;;;5.00;99.90;;;;;;4966655;28;20436;-58
2023/01/10 00:09:20;;;;;;;9.65;2.20;;;4.90;99.90;;;;;;4966447;28;20082;-60
2023/01/10 00:14:33;;;;;;;10.67;2.50;;;5.30;99.90;;;;;;5006316;28;20061;-60
2023/01/10 00:17:03;;;;;;;9.77;2.40;;;5.00;99.90;;;;;;5005320;28;20584;-60
2023/01/10 00:19:29;;;;;;;8.05;2.15;;;4.70;99.90;;;;;;5006571;28;20041;-58
2023/01/10 00:22:07;;;;;;;10.82;2.10;;;5.00;99.90;;;;;;4979556;28;20054;-58
2023/01/10 00:24:34;;;;;;;13.32;2.88;;;4.90;99.90;;;;;;4966795;28;20050;-60
2023/01/10 00:27:01;;;;;;;13.40;2.60;;;5.00;99.90;;;;;;4966985;28;20042;-58
2023/01/10 00:29:30;;;;;;;14.88;2.90;;;5.10;99.90;;;;;;4967294;28;20122;-58
2023/01/10 00:31:56;;;;;;;16.25;2.58;;;5.00;99.90;;;;;;4966132;28;20105;-59
2023/01/10 00:34:22;;;;;;;14.23;2.90;;;5.00;99.90;;;;;;4967628;28;20049;-59
2023/01/10 00:36:48;;;;;;;12.90;2.53;;;4.70;99.90;;;;;;4967254;28;20043;-59
2023/01/10 00:39:19;;;;;;;12.80;2.78;;;4.60;99.90;;;;;;4966449;28;20457;-58
2023/01/10 00:44:29;;;;;;;10.37;3.17;;;4.40;99.90;;;;;;4966826;28;20086;-60
2023/01/10 00:46:55;;;;;;;13.45;2.70;;;4.80;99.90;;;;;;4965474;28;20107;-58
2023/01/10 00:49:21;;;;;;;11.63;2.75;;;4.80;99.90;;;;;;4967571;28;20138;-59
2023/01/10 00:51:47;;;;;;;17.48;3.75;;;4.90;99.90;;;;;;4966691;28;20086;-58
2023/01/10 00:54:13;;;;;;;13.23;4.20;;;4.80;99.90;;;;;;4967310;28;20564;-58
2023/01/10 00:56:40;;;;;;;12.52;3.20;;;4.50;99.90;;;;;;4966685;28;20602;-58
2023/01/10 00:59:06;;;;;;;14.27;2.85;;;4.90;99.90;;;;;;4967690;28;20034;-60
2023/01/10 01:01:32;;;;;;;14.23;3.35;;;4.90;99.90;;;;;;4967353;28;20050;-59
2023/01/10 01:04:00;;;;;;;18.05;3.50;;;4.80;99.90;;;;;;4966670;28;20046;-60
2023/01/10 01:06:26;;;;;;;14.25;3.45;;;4.70;99.90;;;;;;4967168;28;20142;-59
2023/01/10 01:08:52;;;;;;;12.68;3.22;;;4.40;99.90;;;;;;4967010;28;20131;-60
2023/01/10 01:11:18;;;;;;;15.70;3.25;;;4.60;99.90;;;;;;4965927;28;20085;-58
2023/01/10 01:13:43;;;;;;;14.48;3.90;;;4.80;99.90;;;;;;4966402;28;20046;-59
2023/01/10 01:16:09;;;;;;;14.75;3.63;;;4.30;99.90;;;;;;4966544;28;20043;-58
2023/01/10 01:18:35;;;;;;;17.67;3.85;;;4.30;99.90;;;;;;4966125;28;20042;-60
2023/01/10 01:21:02;;;;;;;19.83;4.10;;;4.60;99.90;;;;;;4971475;28;20126;-60
2023/01/10 01:23:28;;;;;;;16.58;4.20;;;4.60;99.90;;;;;;4972138;28;20039;-59
2023/01/10 01:25:56;;;;;;;17.80;3.72;;;4.50;99.90;;;;;;4966319;28;20067;-61
2023/01/10 01:28:22;;;;;;;18.58;3.40;;;4.60;99.90;;;;;;4966440;28;20047;-58
2023/01/10 01:30:49;;;;;;;17.67;3.97;;;4.40;99.90;;;;;;4966066;28;20051;-59
2023/01/10 01:33:15;;;;;;;23.27;3.92;;;4.70;99.90;;;;;;4966145;28;20073;-58
2023/01/10 01:35:42;;;;;;;19.17;4.78;;;4.70;99.90;;;;;;4966051;28;20046;-57
2023/01/10 01:38:08;;;;;;;16.48;3.97;;;5.00;99.90;;;;;;4966502;28;20066;-58
2023/01/10 01:40:33;;;;;;;17.05;3.75;;;4.60;99.90;;;;;;4963663;28;20051;-60
2023/01/10 01:42:59;;;;;;;16.40;3.28;;;5.10;99.90;;;;;;4965848;28;20122;-58
2023/01/10 01:45:33;;;;;;;19.85;4.10;;;5.20;99.90;;;;;;4966026;28;20165;-59
2023/01/10 01:48:06;;;;;;;16.20;3.78;;;5.20;99.90;;;;;;4966481;28;20089;-59
2023/01/10 01:50:45;;;;;;;18.48;4.20;;;4.70;99.90;;;;;;4965613;28;20054;-60
2023/01/10 01:53:26;;;;;;;18.10;3.45;;;5.00;99.90;;;;;;4966275;28;20738;-59
2023/01/10 01:55:55;;;;;;;22.85;4.10;;;4.70;99.90;;;;;;4965146;28;20555;-58
2023/01/10 01:58:35;;;;;;;18.05;3.70;;;4.90;99.90;;;;;;4966425;28;20042;-58
2023/01/10 02:01:01;;;;;;;19.27;3.85;;;5.00;99.90;;;;;;4965594;28;20410;-58
2023/01/10 02:03:28;;;;;;;15.90;3.42;;;4.80;99.90;;;;;;4966027;28;20050;-59
2023/01/10 02:05:54;;;;;;;19.17;3.85;;;5.30;99.90;;;;;;4966300;28;20046;-60
2023/01/10 02:08:20;;;;;;;17.13;3.58;;;5.30;99.90;;;;;;4965549;28;20735;-59
2023/01/10 02:10:54;;;;;;;21.35;3.90;;;4.90;99.90;;;;;;4963144;28;20051;-59
2023/01/10 02:13:23;;;;;;;16.67;3.78;;;4.90;99.90;;;;;;4965495;28;20058;-59
2023/01/10 02:15:49;;;;;;;15.38;3.38;;;5.20;99.90;;;;;;4964521;28;20059;-58
2023/01/10 02:18:15;;;;;;;17.33;3.47;;;5.40;99.90;;;;;;4965964;28;20050;-58
2023/01/10 02:20:53;;;;;;;27.23;4.05;;;4.70;99.90;;;;;;4967790;28;20540;-59
2023/01/10 02:23:57;;;;;;;19.88;3.90;;;4.70;99.90;;;;;;4971845;28;20560;-60
2023/01/10 02:26:33;;;;;;;18.80;3.30;;;5.10;99.90;;;;;;4953533;28;20054;-60
2023/01/10 02:29:36;;;;;;;15.45;3.80;;;5.10;99.90;;;;;;4965935;28;20196;-59
2023/01/10 02:32:02;;;;;;;20.30;3.78;;;5.00;99.90;;;;;;4964435;28;20055;-59
2023/01/10 02:34:41;;;;;;;19.38;4.10;;;4.70;99.90;;;;;;4966227;28;20057;-60
2023/01/10 02:37:24;;;;;;;21.15;3.30;;;4.50;99.90;;;;;;4964720;28;20074;-58
2023/01/10 02:40:17;;;;;;;18.10;3.63;;;4.50;99.90;;;;;;4964645;28;20154;-60
2023/01/10 02:43:07;;;;;;;18.52;3.45;;;5.00;99.90;;;;;;4965689;28;20409;-60
2023/01/10 02:45:41;;;;;;;16.75;3.83;;;4.50;99.90;;;;;;4968266;28;20054;-58
2023/01/10 02:48:07;;;;;;;24.10;4.03;;;5.00;99.90;;;;;;4969561;28;20501;-58
2023/01/10 02:50:42;;;;;;;22.13;4.38;;;4.60;99.90;;;;;;4969371;28;20054;-61
2023/01/10 02:53:39;;;;;;;18.48;3.38;;;5.00;99.90;;;;;;4968580;28;20054;-59
2023/01/10 02:56:23;;;;;;;23.65;4.07;;;5.00;99.90;;;;;;4967857;28;20090;-60
2023/01/10 02:58:55;;;;;;;20.33;4.40;;;5.00;99.90;;;;;;4969144;28;20053;-58
2023/01/10 03:01:42;;;;;;;19.58;4.07;;;4.60;99.90;;;;;;4968939;28;20054;-59
2023/01/10 03:04:38;;;;;;;16.98;3.47;;;4.70;99.90;;;;;;4968801;28;20134;-58
2023/01/10 03:07:17;;;;;;;13.07;3.60;;;4.60;99.90;;;;;;4960555;28;20051;-60
2023/01/10 03:10:22;;;;;;;17.73;3.20;;;4.80;99.90;;;;;;4968326;28;20057;-58
2023/01/10 03:13:03;;;;;;;18.97;3.47;;;4.80;99.90;;;;;;4967561;28;20047;-58
2023/01/10 03:15:34;;;;;;;13.57;3.55;;;4.80;99.90;;;;;;4969220;28;20431;-59
2023/01/10 03:18:04;;;;;;;24.20;3.67;;;5.10;99.90;;;;;;4969233;28;20494;-59
2023/01/10 03:20:34;;;;;;;12.05;2.90;;;4.90;99.90;;;;;;4971400;28;20054;-61
2023/01/10 03:23:04;;;;;;;15.40;3.20;;;5.20;99.90;;;;;;4977607;28;20043;-58
2023/01/10 03:25:33;;;;;;;15.07;3.22;;;4.90;99.90;;;;;;4968029;28;20109;-58
2023/01/10 03:28:11;;;;;;;16.45;3.97;;;5.00;99.90;;;;;;4968520;28;20089;-60
2023/01/10 03:31:04;;;;;;;16.55;3.10;;;5.10;99.90;;;;;;4968372;28;20055;-58
2023/01/10 03:33:31;;;;;;;12.77;3.00;;;4.80;99.90;;;;;;4969235;28;20433;-58
2023/01/10 03:36:30;;;;;;;19.08;3.92;;;5.10;99.90;;;;;;4968861;28;20110;-58
2023/01/10 03:39:11;;;;;;;12.75;3.20;;;5.00;99.90;;;;;;4968502;28;20401;-59
2023/01/10 03:41:49;;;;;;;16.20;3.25;;;5.10;99.90;;;;;;4967854;28;20545;-58
2023/01/10 03:44:42;;;;;;;17.33;3.50;;;5.30;99.90;;;;;;4968032;28;20487;-60
2023/01/10 03:47:20;;;;;;;16.63;3.70;;;5.30;99.90;;;;;;4966377;28;20039;-58
2023/01/10 03:49:52;;;;;;;16.48;3.45;;;5.30;99.90;;;;;;4950327;28;20051;-58
2023/01/10 03:52:19;;;;;;;17.05;3.45;;;4.90;99.90;;;;;;4967194;28;20035;-58
2023/01/10 03:54:46;;;;;;;15.40;3.10;;;4.90;99.90;;;;;;4967403;28;20051;-59
2023/01/10 03:57:21;;;;;;;13.88;3.50;;;4.90;99.90;;;;;;4967592;28;20097;-59
2023/01/10 03:59:49;;;;;;;18.63;3.85;;;5.10;99.90;;;;;;4967235;28;20067;-58
2023/01/10 04:02:15;;;;;;;21.23;4.20;;;5.20;99.90;;;;;;4968810;28;20080;-58
2023/01/10 04:04:40;;;;;;;16.92;3.67;;;4.90;99.90;;;;;;4968696;28;20482;-60
2023/01/10 04:07:06;;;;;;;19.73;3.20;;;4.80;99.90;;;;;;4967031;28;20054;-60
2023/01/10 04:09:32;;;;;;;16.13;3.20;;;4.90;99.90;;;;;;4967791;28;20126;-58
2023/01/10 04:11:57;;;;;;;16.20;3.40;;;5.30;99.90;;;;;;4967733;28;20093;-59
2023/01/10 04:14:23;;;;;;;15.07;3.80;;;5.20;99.90;;;;;;4967509;28;20114;-58
2023/01/10 04:16:49;;;;;;;15.02;3.20;;;5.40;99.90;;;;;;4967198;28;20049;-60
2023/01/10 04:19:14;;;;;;;17.23;3.90;;;5.40;99.90;;;;;;4967327;28;20126;-59
2023/01/10 04:21:40;;;;;;;18.55;3.58;;;5.00;99.90;;;;;;4977193;28;20070;-58
2023/01/10 04:24:06;;;;;;;17.48;3.67;;;4.90;99.90;;;;;;4967476;28;20090;-58
2023/01/10 04:26:32;;;;;;;17.75;3.67;;;5.30;99.90;;;;;;4967173;28;20073;-58
2023/01/10 04:28:57;;;;;;;17.75;3.70;;;5.40;99.90;;;;;;4966022;28;20059;-59
2023/01/10 04:31:23;;;;;;;15.88;3.67;;;5.20;99.90;;;;;;4966559;28;20078;-58
2023/01/10 04:33:48;;;;;;;15.23;3.17;;;5.20;99.90;;;;;;4965483;28;20046;-59
2023/01/10 04:36:14;;;;;;;19.45;3.53;;;5.40;99.90;;;;;;4966933;28;20089;-58
2023/01/10 04:38:40;;;;;;;14.25;3.83;;;5.30;99.90;;;;;;4965954;28;20086;-59
2023/01/10 04:41:05;;;;;;;15.40;3.65;;;5.20;99.90;;;;;;4965689;28;20126;-62
2023/01/10 04:43:31;;;;;;;10.55;2.95;;;4.80;99.90;;;;;;4966870;28;20086;-59
2023/01/10 04:45:57;;;;;;;8.75;2.17;;;5.10;99.90;;;;;;4967037;28;20146;-59
2023/01/10 04:48:23;;;;;;;13.77;3.13;;;5.30;99.90;;;;;;4966880;28;20043;-58
2023/01/10 04:50:50;;;;;;;16.10;3.65;;;5.20;99.90;;;;;;4966863;28;20422;-58
2023/01/10 04:53:17;;;;;;;16.35;4.32;;;4.70;99.90;;;;;;4968339;28;20046;-58
2023/01/10 04:55:42;;;;;;;15.77;3.72;;;5.00;99.90;;;;;;4966641;28;20061;-58
2023/01/10 04:58:08;;;;;;;15.50;3.67;;;5.10;99.90;;;;;;4966689;28;20047;-58
2023/01/10 05:00:34;;;;;;;15.82;4.00;;;4.90;99.90;;;;;;4967215;28;20043;-59
2023/01/10 05:02:59;;;;;;;19.20;4.60;;;4.80;99.90;;;;;;4967252;28;20039;-59
2023/01/10 05:05:25;;;;;;;19.20;4.25;;;4.90;99.90;;;;;;4967203;28;20047;-60
2023/01/10 05:07:51;;;;;;;17.05;4.15;;;5.10;99.90;;;;;;4948849;28;20061;-59
2023/01/10 05:10:17;;;;;;;14.25;3.78;;;4.80;99.90;;;;;;4966745;28;20056;-59
2023/01/10 05:12:42;;;;;;;17.35;3.88;;;5.30;99.90;;;;;;4967337;28;20410;-58
2023/01/10 05:15:08;;;;;;;19.75;4.45;;;5.20;99.90;;;;;;4966164;28;20050;-59
2023/01/10 05:17:34;;;;;;;20.02;4.32;;;4.80;99.90;;;;;;4966545;28;20121;-59
2023/01/10 05:20:00;;;;;;;14.55;3.97;;;4.60;99.90;;;;;;4968047;28;20118;-59
2023/01/10 05:22:25;;;;;;;14.68;4.03;;;4.60;99.90;;;;;;4975868;28;20042;-60
2023/01/10 05:24:51;;;;;;;20.23;4.22;;;4.80;99.90;;;;;;4965767;28;20055;-58
2023/01/10 05:27:17;;;;;;;20.42;4.35;;;4.90;99.90;;;;;;4965974;28;20138;-59
2023/01/10 05:29:43;;;;;;;15.98;3.92;;;4.50;99.90;;;;;;4965970;28;20082;-58
2023/01/10 05:32:08;;;;;;;17.55;4.15;;;4.70;99.90;;;;;;4966393;28;20394;-61
2023/01/10 05:34:34;;;;;;;17.23;4.05;;;4.70;99.90;;;;;;4966936;28;20050;-59
2023/01/10 05:37:00;;;;;;;17.58;3.78;;;4.70;99.90;;;;;;4966239;28;20053;-58
2023/01/10 05:39:25;;;;;;;14.30;3.95;;;4.60;99.90;;;;;;4965026;28;20051;-60
2023/01/10 05:41:51;;;;;;;13.63;4.05;;;4.70;99.90;;;;;;4966882;28;20114;-58
2023/01/10 05:44:17;;;;;;;14.43;4.43;;;4.90;99.90;;;;;;4966055;28;20058;-60
2023/01/10 05:46:42;;;;;;;13.85;4.60;;;4.60;99.90;;;;;;4966192;28;20047;-59
2023/01/10 05:49:08;;;;;;;18.10;5.43;;;4.60;99.90;;;;;;4966026;28;20046;-59
2023/01/10 05:51:34;;;;;;;17.40;4.28;;;5.00;99.90;;;;;;4966210;28;20043;-58
2023/01/10 05:53:59;;;;;;;14.48;4.13;;;4.70;99.90;;;;;;4966388;28;20055;-58
2023/01/10 05:56:25;;;;;;;19.63;5.25;;;5.30;99.90;;;;;;4964797;28;20529;-58
2023/01/10 05:58:51;;;;;;;17.88;5.10;;;5.00;99.90;;;;;;4964416;28;20549;-58
2023/01/10 06:01:17;;;;;;;17.73;5.13;;;4.80;99.90;;;;;;4966182;28;20043;-59
2023/01/10 06:03:42;;;;;;;19.33;5.88;;;5.50;99.90;;;;;;4965887;28;20184;-59
2023/01/10 06:06:08;;;;;;;22.80;5.80;;;5.50;99.90;;;;;;4966215;28;20050;-59
2023/01/10 06:08:35;;;;;;;17.42;5.15;;;5.50;99.90;;;;;;4965280;28;20038;-58
2023/01/10 06:11:02;;;;;;;17.15;5.07;;;5.60;99.90;;;;;;4965038;28;20069;-60
2023/01/10 06:13:28;;;;;;;22.05;5.68;;;5.70;99.90;;;;;;4965477;28;20062;-58
2023/01/10 06:15:54;;;;;;;20.63;6.35;;;5.20;99.90;;;;;;4965606;28;20050;-59
2023/01/10 06:18:19;;;;;;;21.67;5.35;;;5.60;99.90;;;;;;4966015;28;20053;-58
2023/01/10 06:20:45;;;;;;;21.50;5.78;;;5.10;99.90;;;;;;4967511;28;20129;-58
2023/01/10 06:23:11;;;;;;;20.10;5.72;;;5.30;99.90;;;;;;4973255;28;20043;-60
2023/01/10 06:25:39;;;;;;;15.50;4.70;;;5.30;99.90;;;;;;4964748;28;20057;-58
2023/01/10 06:28:06;;;;;;;24.27;6.57;;;5.20;99.90;;;;;;4964711;28;20703;-60
2023/01/10 06:30:32;;;;;;;20.23;5.50;;;5.60;99.90;;;;;;4965020;28;20085;-58
2023/01/10 06:33:03;;;;;;;23.38;5.28;;;5.30;99.90;;;;;;4965502;28;20131;-58
2023/01/10 06:35:29;;;;;;;20.17;6.60;;;5.50;99.90;;;;;;4965005;28;20122;-59
2023/01/10 06:37:54;;;;;;;24.70;4.95;;;5.20;99.90;;;;;;4964449;28;20501;-59
2023/01/10 06:40:20;;;;;;;10.57;3.17;;;5.30;99.90;;;;;;4964413;28;20105;-60
2023/01/10 06:42:46;;;;;;;21.88;5.10;;;5.70;99.90;;;;;;4964893;28;20035;-58
2023/01/10 06:45:11;;;;;;;15.55;4.28;;;5.70;99.90;;;;;;4964805;28;20050;-60
2023/01/10 06:47:37;;;;;;;22.10;5.53;;;5.20;99.90;;;;;;4964863;28;20062;-58
2023/01/10 06:50:04;;;;;;;18.30;4.65;;;5.60;99.90;;;;;;4965738;28;20051;-58
2023/01/10 06:52:30;;;;;;;15.23;4.30;;;5.30;99.90;;;;;;4964521;28;20042;-58
2023/01/10 06:54:56;;;;;;;18.95;3.55;;;5.50;99.90;;;;;;4964219;28;20054;-58
2023/01/10 06:57:21;;;;;;;20.13;3.85;;;5.60;99.90;;;;;;4965137;28;20502;-59
2023/01/10 06:59:47;;;;;;;15.80;4.18;;;5.60;99.90;;;;;;4965035;28;20034;-59
2023/01/10 07:02:13;;;;;;;11.80;3.28;;;5.60;99.90;;;;;;4964267;28;20039;-60
2023/01/10 07:04:39;;;;;;;14.18;3.70;;;5.40;99.90;;;;;;4964442;28;20117;-58
2023/01/10 07:07:05;;;;;;;16.15;3.88;;;5.60;99.90;;;;;;4965722;28;20078;-59
2023/01/10 07:09:30;;;;;;;18.80;4.13;;;5.00;99.90;;;;;;4964175;28;20065;-59
2023/01/10 07:11:56;;;;;;;14.80;4.03;;;5.20;99.90;;;;;;4965590;28;20055;-59
2023/01/10 07:14:22;;;;;;;18.20;4.00;;;5.10;99.90;;;;;;4965086;28;20090;-58
2023/01/10 07:16:48;;;;;;;17.80;4.22;;;5.50;99.90;;;;;;4965175;28;20660;-59
2023/01/10 07:19:14;;;;;;;17.52;3.63;;;5.50;99.90;;;;;;4965253;28;20699;-59
2023/01/10 07:21:40;;;;;;;19.77;4.32;;;5.40;99.90;;;;;;4976152;28;20114;-58
2023/01/10 07:24:07;;;;;;;19.15;4.55;;;5.20;99.90;;;;;;4965587;28;20582;-59
2023/01/10 07:26:32;;;;;;;16.95;4.72;;;5.10;99.90;;;;;;4965207;28;20121;-58
2023/01/10 07:28:58;;;;;;;17.50;4.90;;;4.90;99.90;;;;;;4965503;28;20138;-60
2023/01/10 07:31:24;;;;;;;17.25;4.82;;;5.30;99.90;;;;;;4966245;28;20051;-59
2023/01/10 07:33:51;;;;;;;20.02;5.03;;;5.00;99.90;;;;;;4967816;28;20051;-61
2023/01/10 07:36:17;;;;;;;12.23;4.13;;;5.00;99.90;;;;;;4968814;28;20134;-59
2023/01/10 07:38:43;;;;;;;19.40;5.13;;;4.90;99.90;;;;;;4968872;28;20066;-59
2023/01/10 07:41:09;;;;;;;24.05;5.25;;;5.20;99.90;;;;;;4967499;28;20522;-59
2023/01/10 07:43:35;;;;;;;20.77;5.97;;;5.50;99.90;;;;;;4967753;28;20046;-59
2023/01/10 07:46:03;;;;;;;26.52;6.25;;;5.10;99.90;;;;;;4967890;28;20042;-58
2023/01/10 07:48:29;;;;;;;16.80;4.20;;;5.30;99.90;;;;;;4967607;28;20049;-60
2023/01/10 07:50:59;;;;;;;15.50;4.90;;;5.10;99.90;;;;;;4967683;28;20074;-58
2023/01/10 07:53:26;;;;;;;14.30;4.43;;;5.20;99.90;;;;;;4968277;28;20414;-60
2023/01/10 07:55:52;;;;;;;18.67;5.70;;;5.30;99.90;;;;;;4967734;28;20054;-58
2023/01/10 07:58:18;;;;;;;17.27;4.90;;;5.20;99.90;;;;;;4967719;28;20043;-60
2023/01/10 08:00:45;;;;;;;18.92;6.32;;;5.20;99.90;;;;;;4966970;28;20073;-58
2023/01/10 08:03:11;;;;;;;18.70;5.15;;;5.40;99.90;;;;;;4967573;28;20042;-60
2023/01/10 08:05:37;;;;;;;22.63;6.80;;;5.50;99.90;;;;;;4968400;28;20912;-59
2023/01/10 08:08:05;;;;;;;24.60;7.25;;;5.70;99.90;;;;;;4966954;28;20525;-60
2023/01/10 08:10:33;;;;;;;23.05;6.22;;;5.40;99.90;;;;;;4966867;28;20459;-58
2023/01/10 08:12:59;;;;;;;21.05;7.10;;;5.80;99.90;;;;;;4967526;28;20051;-59
2023/01/10 08:15:25;;;;;;;30.88;7.82;;;5.40;99.90;;;;;;4967135;28;20105;-58
2023/01/10 08:17:51;;;;;;;24.80;7.55;;;5.20;99.90;;;;;;4966564;28;20042;-59
2023/01/10 08:20:16;;;;;;;17.73;6.05;;;5.80;99.90;;;;;;4970493;28;20121;-58
2023/01/10 08:22:42;;;;;;;21.48;7.15;;;5.40;99.90;;;;;;4975672;28;20050;-60
2023/01/10 08:25:08;;;;;;;23.73;7.60;;;5.50;99.90;;;;;;4966874;28;20885;-60
2023/01/10 08:27:34;;;;;;;20.58;5.55;;;5.50;99.90;;;;;;4967435;28;20062;-61
2023/01/10 08:30:00;;;;;;;26.23;7.40;;;5.90;99.90;;;;;;4967221;28;20039;-58
2023/01/10 08:32:25;;;;;;;29.10;7.55;;;6.00;99.90;;;;;;4968170;28;20458;-59
2023/01/10 08:34:51;;;;;;;22.48;7.20;;;5.50;99.90;;;;;;4967938;28;20057;-59
2023/01/10 08:37:17;;;;;;;20.58;6.47;;;6.00;99.90;;;;;;4967892;28;20042;-58
2023/01/10 08:39:42;;;;;;;25.23;6.97;;;6.00;99.90;;;;;;4965950;28;20046;-60
2023/01/10 08:42:09;;;;;;;25.38;7.20;;;5.70;99.90;;;;;;4966992;28;20051;-59
2023/01/10 08:44:35;;;;;;;29.25;7.75;;;6.10;99.90;;;;;;4966729;28;20493;-59
2023/01/10 08:47:01;;;;;;;22.63;6.97;;;5.50;99.90;;;;;;4971662;28;20070;-58
2023/01/10 08:49:26;;;;;;;32.75;8.10;;;5.60;99.90;;;;;;4985243;28;20117;-59
2023/01/10 08:51:52;;;;;;;28.45;7.25;;;6.10;99.90;;;;;;4986001;28;20042;-59
2023/01/10 08:54:18;;;;;;;18.73;5.55;;;5.90;99.90;;;;;;4986196;28;20053;-58
2023/01/10 08:56:43;;;;;;;17.20;5.28;;;6.20;99.90;;;;;;4985799;28;20101;-59
2023/01/10 08:59:09;;;;;;;21.30;6.60;;;6.10;99.90;;;;;;4985142;28;20047;-60
2023/01/10 09:01:35;;;;;;;25.02;6.18;;;6.20;99.90;;;;;;4986334;28;20735;-60
2023/01/10 09:04:00;;;;;;;20.48;5.53;;;6.10;99.90;;;;;;4986246;28;20089;-58
2023/01/10 09:06:26;;;;;;;22.65;5.80;;;5.80;99.90;;;;;;4986784;28;20043;-59
2023/01/10 09:08:52;;;;;;;22.85;5.68;;;6.30;99.90;;;;;;4986218;28;20097;-59
2023/01/10 09:11:17;;;;;;;27.30;6.22;;;6.30;99.90;;;;;;4986361;28;20509;-59
2023/01/10 09:13:43;;;;;;;19.55;5.20;;;6.30;99.90;;;;;;4985453;28;20086;-59
2023/01/10 09:16:09;;;;;;;18.02;5.05;;;6.40;99.90;;;;;;4984878;28;20172;-58
2023/01/10 09:18:35;;;;;;;24.00;4.85;;;6.30;99.90;;;;;;4985999;28;20046;-61
2023/01/10 09:21:01;;;;;;;20.02;5.18;;;6.40;99.90;;;;;;4979532;28;20043;-59
2023/01/10 09:23:27;;;;;;;29.40;5.85;;;6.60;99.90;;;;;;4971957;28;20047;-61
2023/01/10 09:25:56;;;;;;;20.77;4.90;;;6.40;99.90;;;;;;4966932;28;20750;-57
2023/01/10 09:28:25;;;;;;;19.70;5.57;;;6.70;99.90;;;;;;4964690;28;20130;-60
2023/01/10 09:30:51;;;;;;;9.85;2.78;;;6.70;99.90;;;;;;4966652;28;20375;-59
2023/01/10 09:33:17;;;;;;;16.85;4.70;;;6.80;99.90;;;;;;4965888;28;20050;-58
2023/01/10 09:35:43;;;;;;;22.65;5.25;;;6.60;99.90;;;;;;4965388;28;20058;-57
2023/01/10 09:38:13;;;;;;;19.45;5.13;;;6.80;99.90;;;;;;4966121;28;20082;-57
2023/01/10 09:41:00;;;;;;;23.02;4.65;;;6.90;99.90;;;;;;4964899;28;20056;-60
2023/01/10 09:43:49;;;;;;;15.25;4.35;;;6.90;99.90;;;;;;4965002;28;20051;-59
2023/01/10 09:46:40;;;;;;;16.98;4.25;;;7.00;99.90;;;;;;4964915;28;20442;-59
2023/01/10 09:49:22;;;;;;;21.63;4.68;;;7.00;99.90;;;;;;4966227;28;20105;-57
2023/01/10 09:51:50;;;;;;;14.13;3.28;;;7.30;99.90;;;;;;4965373;28;20105;-58
2023/01/10 09:54:27;;;;;;;14.38;4.05;;;7.40;99.90;;;;;;4964746;28;20045;-57
2023/01/10 09:56:54;;;;;;;11.82;3.25;;;7.50;99.90;;;;;;4966757;28;20403;-57
2023/01/10 09:59:23;;;;;;;22.77;5.57;;;7.10;99.90;;;;;;4965167;28;20134;-58
2023/01/10 10:01:58;;;;;;;21.52;5.47;;;7.20;99.90;;;;;;4965540;28;20058;-58
2023/01/10 10:04:33;;;;;;;20.80;5.05;;;7.20;99.90;;;;;;4965539;28;20078;-59
2023/01/10 10:06:59;;;;;;;18.58;5.53;;;7.20;99.90;;;;;;4965796;28;20138;-58
2023/01/10 10:09:28;;;;;;;21.13;4.80;;;6.90;99.90;;;;;;4965520;28;20142;-59
2023/01/10 10:12:13;;;;;;;21.65;5.13;;;6.70;99.90;;;;;;4971439;28;20049;-61
2023/01/10 10:14:43;;;;;;;23.87;5.23;;;7.00;99.90;;;;;;5004959;28;20235;-58
2023/01/10 10:17:26;;;;;;;14.18;4.15;;;6.90;99.90;;;;;;5004128;28;20281;-57
2023/01/10 10:20:16;;;;;;;21.17;4.72;;;6.70;99.90;;;;;;5000179;28;20543;-57
2023/01/10 10:23:07;;;;;;;19.58;4.72;;;6.50;99.90;;;;;;4974287;28;20137;-58
2023/01/10 10:25:41;;;;;;;22.08;4.75;;;6.50;99.90;;;;;;4965021;28;20051;-60
2023/01/10 10:28:40;;;;;;;15.10;3.88;;;6.80;99.90;;;;;;4965665;28;20097;-59
2023/01/10 10:31:29;;;;;;;19.60;4.13;;;6.70;99.90;;;;;;4964175;28;20050;-58
2023/01/10 10:34:04;;;;;;;18.63;4.88;;;6.50;99.90;;;;;;4966154;28;20097;-59
2023/01/10 10:36:37;;;;;;;12.43;4.40;;;6.60;99.90;;;;;;4964051;28;20055;-59
2023/01/10 10:39:05;;;;;;;16.10;4.18;;;6.50;99.90;;;;;;4964983;28;20047;-59
2023/01/10 10:41:39;;;;;;;17.48;4.45;;;6.50;99.90;;;;;;4964992;28;20140;-57
2023/01/10 10:44:32;;;;;;;17.92;3.83;;;6.60;99.90;;;;;;4965707;28;20102;-58
2023/01/10 10:46:58;;;;;;;16.15;4.20;;;6.70;99.90;;;;;;4965372;28;20077;-59
2023/01/10 10:49:30;;;;;;;19.52;4.78;;;6.80;99.90;;;;;;4965400;28;20050;-58
2023/01/10 10:51:56;;;;;;;18.30;4.57;;;6.70;99.90;;;;;;4965497;28;20083;-57
2023/01/10 10:54:22;;;;;;;18.33;4.38;;;6.90;99.90;;;;;;4965411;28;20593;-58
2023/01/10 10:56:48;;;;;;;21.52;4.80;;;6.90;99.90;;;;;;4965862;28;20041;-57
2023/01/10 10:59:18;;;;;;;14.30;4.20;;;6.90;99.90;;;;;;4965482;28;20162;-57
2023/01/10 11:01:49;;;;;;;16.60;4.60;;;6.90;99.90;;;;;;4965370;28;20070;-58
2023/01/10 11:04:20;;;;;;;13.82;2.83;;;6.70;99.90;;;;;;4965525;28;20177;-58
2023/01/10 11:06:49;;;;;;;21.42;6.20;;;6.60;99.90;;;;;;4969289;28;20430;-58
2023/01/10 11:09:40;;;;;;;14.98;5.05;;;6.60;99.90;;;;;;4967974;28;20043;-58
2023/01/10 11:12:12;;;;;;;19.10;5.25;;;6.90;99.90;;;;;;4977331;28;20057;-59
2023/01/10 11:14:50;;;;;;;17.65;5.13;;;6.80;99.90;;;;;;5008686;28;20590;-60
2023/01/10 11:17:27;;;;;;;18.17;4.97;;;6.70;99.90;;;;;;5007672;28;20034;-59
2023/01/10 11:19:57;;;;;;;24.67;4.93;;;6.80;99.90;;;;;;5003989;28;20049;-58
2023/01/10 11:22:24;;;;;;;25.08;5.05;;;7.10;99.90;;;;;;4978957;28;20042;-58
2023/01/10 11:24:55;;;;;;;20.70;6.22;;;6.80;99.90;;;;;;4968677;28;20501;-59
2023/01/10 11:27:24;;;;;;;18.17;5.60;;;6.80;99.90;;;;;;4968957;28;20043;-57
2023/01/10 11:30:16;;;;;;;16.02;5.18;;;7.00;99.90;;;;;;4967304;28;20078;-62
2023/01/10 11:32:53;;;;;;;18.52;6.45;;;7.00;99.90;;;;;;4980845;28;20091;-59
2023/01/10 11:35:23;;;;;;;22.08;5.95;;;6.70;99.90;;;;;;5007814;28;20050;-60
2023/01/10 11:38:18;;;;;;;26.17;7.55;;;6.90;99.90;;;;;;5005774;28;20057;-59
2023/01/10 11:41:04;;;;;;;31.20;7.70;;;7.10;99.90;;;;;;5007545;28;20128;-61
2023/01/10 11:43:35;;;;;;;13.40;4.72;;;6.80;99.90;;;;;;5007260;28;20048;-62
2023/01/10 11:46:10;;;;;;;18.83;6.50;;;6.80;99.90;;;;;;5006559;28;20423;-61
2023/01/10 11:48:50;;;;;;;15.82;5.65;;;7.00;99.90;;;;;;5007300;28;20088;-62
2023/01/10 11:51:28;;;;;;;26.20;8.48;;;6.90;99.90;;;;;;4989521;28;20456;-60
2023/01/10 11:54:00;;;;;;;17.25;6.68;;;6.80;99.90;;;;;;5006654;28;20068;-61
2023/01/10 11:56:31;;;;;;;22.02;7.55;;;7.20;99.90;;;;;;5006951;28;20168;-61
2023/01/10 11:59:05;;;;;;;18.80;7.47;;;6.80;99.90;;;;;;5006844;28;20698;-60
2023/01/10 12:01:36;;;;;;;25.40;8.32;;;7.00;99.90;;;;;;5005943;28;20052;-62
2023/01/10 12:04:02;;;;;;;26.58;9.10;;;7.10;99.90;;;;;;5006581;28;20046;-60
2023/01/10 12:06:28;;;;;;;24.35;8.70;;;6.90;99.90;;;;;;5006203;28;20050;-61
2023/01/10 12:08:55;;;;;;;18.13;7.55;;;6.90;99.90;;;;;;5006037;28;20129;-60
2023/01/10 12:11:30;;;;;;;24.38;8.38;;;6.90;99.90;;;;;;5006944;28;20061;-62
2023/01/10 12:14:01;;;;;;;14.90;5.05;;;6.80;99.90;;;;;;4985403;28;20046;-61
2023/01/10 12:16:32;;;;;;;25.60;7.18;;;7.10;99.90;;;;;;4971159;28;20030;-60
2023/01/10 12:19:00;;;;;;;21.77;6.40;;;7.00;99.90;;;;;;4985929;28;20142;-59
2023/01/10 12:21:28;;;;;;;27.52;7.40;;;7.00;99.90;;;;;;4964489;28;20116;-61
2023/01/10 12:23:58;;;;;;;22.90;7.15;;;6.90;99.90;;;;;;4966312;28;20379;-61
2023/01/10 12:26:26;;;;;;;18.63;6.82;;;7.00;99.90;;;;;;4967640;28;20740;-60
2023/01/10 12:28:56;;;;;;;17.02;5.90;;;6.70;99.90;;;;;;4967621;28;20532;-62
2023/01/10 12:31:22;;;;;;;19.88;6.82;;;7.10;99.90;;;;;;4967219;28;20195;-61
2023/01/10 12:33:58;;;;;;;17.95;6.03;;;6.90;99.90;;;;;;4966058;28;20043;-60
2023/01/10 12:36:30;;;;;;;19.70;6.50;;;6.90;99.90;;;;;;4967487;28;20047;-62
2023/01/10 12:39:15;;;;;;;19.23;5.18;;;6.80;99.90;;;;;;4966059;28;20690;-59
2023/01/10 12:44:36;;;;;;;23.40;6.53;;;7.00;99.90;;;;;;4967172;28;20197;-62
2023/01/10 12:47:06;;;;;;;14.57;4.45;;;6.80;99.90;;;;;;4966941;28;20575;-64
2023/01/10 12:49:53;;;;;;;18.92;5.43;;;6.90;99.90;;;;;;4967132;28;20051;-58
2023/01/10 12:52:30;;;;;;;28.38;6.80;;;6.90;99.90;;;;;;4967312;28;20126;-58
2023/01/10 12:54:56;;;;;;;18.10;5.55;;;6.90;99.90;;;;;;4965461;28;20602;-57
2023/01/10 12:57:32;;;;;;;20.25;5.95;;;6.60;99.90;;;;;;4966173;28;20071;-57
2023/01/10 13:00:03;;;;;;;19.33;5.57;;;6.90;99.90;;;;;;4966765;28;20405;-57
2023/01/10 13:02:38;;;;;;;20.42;5.85;;;6.80;99.90;;;;;;4967350;28;20509;-57
2023/01/10 13:05:05;;;;;;;18.83;5.03;;;6.60;99.90;;;;;;4967620;28;20042;-59
2023/01/10 13:07:34;;;;;;;24.88;6.95;;;6.60;99.90;;;;;;4968016;28;20054;-57
2023/01/10 13:10:04;;;;;;;26.88;7.55;;;6.80;99.90;;;;;;4966579;28;20046;-58
2023/01/10 13:12:37;;;;;;;16.35;5.32;;;6.60;99.90;;;;;;4967774;28;20055;-57